Hovedside
METAR-TAF:

METAR-TAF

Lufthavner :

Yap, Mikronesia

breddegrad: 09-29N, lengdegrad: 138-05E, høyde over havet: 28 m

Gjeldene værobservasjon

Denne rapporten ble laget for 28 minutter siden, klokken 03:50 UTC
Vind 6 kt fra skiftende retning
Temperatur 32°C
Luftfuktighet 75%
Trykk 1006 hPa
Sikt: 19.3 km
Få skyer i en høyde av 1700 ft
Overskyet i en høyde av 30000 ft

METAR: PTYA 240350Z VRB06KT 12SM FEW017 OVC300 32/27 A2972 RMK SLP066 T03150265

Tid: 14:18 (04:18 UTC)

Varsel

Denne rapporten ble laget for 4 timer og 36 minutter siden, klokken 23:42 UTC
Varsel gyldig fra 24. klokken 00 UTC til 24. klokken 24 UTC
Vind 9 kt fra Nord
Sikt: 10 km
Få skyer i en høyde av 1600 ft
Spredte skyer i en høyde av 13000 ft
regnbyger i nærheten

TAF: PTYA 232342Z 2400/2424 36009KT P6SM VCSH FEW016 SCT130

Værobservasjoner og værvarsel for over 4000 flyplasser (METAR- og TAF-rapporter).

Tilgjengelige stasjoner er representert av de røde og gule prikkene på kartet.

Hold musepekeren over prikken for å se navnet på stasjonen.

Klikk så for å se værobservasjoner og -varsler.

For å forandre kartet kan du klikke på den grønne knappen med svart kryss for å zoome inn, på den grønne knappen med strek for å zoome ut, eller på de grønne pilene for å se tilstøtende kart.


METAR-TAF: